Time;durP1;ratioP1;P1;durP2;ratioP2;P2;SDS_P1;SDS_P2;PMS_P1;PMS_P2;Temp;Humidity;BMP_temperature;BMP_pressure;BME280_temperature;BME280_humidity;BME280_pressure;Samples;Min_cycle;Max_cycle;Signal;HPM_P1;HPM_P2
2023/01/15 00:00:57;;;;;;;105.95;74.57;;;;;;;7.20;79.18;101628.28;4994198;28;20050;-80
2023/01/15 00:03:41;;;;;;;105.82;73.18;;;;;;;7.21;79.11;101621.22;4990891;28;20073;-79
2023/01/15 00:06:31;;;;;;;106.20;74.20;;;;;;;7.17;79.29;101617.06;4998323;28;20514;-79
2023/01/15 00:09:08;;;;;;;106.97;73.35;;;;;;;7.10;78.85;101602.50;5001307;28;20056;-80
2023/01/15 00:11:36;;;;;;;107.72;73.20;;;;;;;7.15;79.11;101626.84;5005483;28;20076;-79
2023/01/15 00:14:16;;;;;;;103.07;73.53;;;;;;;7.20;78.97;101620.34;4988674;28;20103;-80
2023/01/15 00:17:01;;;;;;;109.93;73.20;;;;;;;7.18;79.18;101616.09;4984073;28;20141;-80
2023/01/15 00:19:46;;;;;;;100.68;72.93;;;;;;;6.46;78.82;101502.38;4986041;28;20176;-80
2023/01/15 00:22:26;;;;;;;105.88;71.88;;;;;;;7.18;78.78;101614.31;4994034;28;20440;-78
2023/01/15 00:27:49;;;;;;;101.75;70.75;;;;;;;7.09;79.51;101611.34;4998567;28;20512;-80
2023/01/15 00:30:41;;;;;;;108.85;72.65;;;;;;;7.11;79.15;101612.97;4985441;28;20285;-80
2023/01/15 00:33:19;;;;;;;93.82;68.25;;;;;;;7.10;79.34;101613.06;4986092;28;20426;-77
2023/01/15 00:36:02;;;;;;;110.63;73.82;;;;;;;6.94;78.88;101565.56;4976753;28;20053;-80
2023/01/15 00:38:40;;;;;;;109.78;70.65;;;;;;;7.13;79.28;101597.03;4991193;28;20379;-78
2023/01/15 00:41:17;;;;;;;104.10;71.13;;;;;;;7.07;79.02;101577.97;5013189;28;20228;-80
2023/01/15 00:43:48;;;;;;;102.82;68.72;;;;;;;6.92;78.63;101541.03;5022036;28;20053;-79
2023/01/15 00:46:24;;;;;;;100.28;70.63;;;;;;;7.13;79.10;101578.53;5024738;28;20060;-80
2023/01/15 00:48:53;;;;;;;106.25;71.90;;;;;;;7.20;78.66;101596.56;5023953;28;20407;-79
2023/01/15 00:51:23;;;;;;;105.30;69.72;;;;;;;7.05;78.67;101569.28;5031659;28;20605;-79
2023/01/15 00:53:59;;;;;;;103.30;72.03;;;;;;;7.12;79.15;101566.31;4998047;28;20098;-78
2023/01/15 00:56:31;;;;;;;102.13;66.95;;;;;;;7.18;78.31;101589.69;5022794;28;20136;-78
2023/01/15 00:59:00;;;;;;;107.72;70.63;;;;;;;7.14;78.80;101588.19;5026803;28;20037;-78
2023/01/15 01:01:36;;;;;;;104.63;68.40;;;;;;;6.87;79.23;101543.09;5026951;28;20076;-78
2023/01/15 01:04:18;;;;;;;98.38;67.25;;;;;;;6.78;79.00;101528.69;5026573;28;20057;-79
2023/01/15 01:06:51;;;;;;;102.50;69.60;;;;;;;7.02;79.03;101566.84;5027514;28;20110;-79
2023/01/15 01:09:22;;;;;;;101.22;68.30;;;;;;;6.96;78.83;101559.25;5032261;28;20349;-78
2023/01/15 01:11:58;;;;;;;108.00;68.97;;;;;;;6.81;79.46;101541.69;5030990;28;20053;-80
2023/01/15 01:14:25;;;;;;;96.68;67.40;;;;;;;6.32;79.42;101457.47;5027815;28;20040;-79
2023/01/15 01:16:52;;;;;;;108.43;72.07;;;;;;;6.97;79.32;101555.69;5021526;28;20057;-79
2023/01/15 01:19:23;;;;;;;100.05;66.05;;;;;;;6.89;78.88;101536.78;5011106;28;20041;-79
2023/01/15 01:21:51;;;;;;;104.38;70.57;;;;;;;6.69;79.20;101503.66;5019312;28;20045;-77
2023/01/15 01:24:20;;;;;;;103.60;70.60;;;;;;;6.97;79.11;101545.13;5019724;28;20048;-79
2023/01/15 01:26:54;;;;;;;99.50;69.45;;;;;;;6.37;79.25;101452.78;5025335;28;20262;-79
2023/01/15 01:29:24;;;;;;;104.00;68.78;;;;;;;6.91;79.12;101542.84;5020128;28;20191;-78
2023/01/15 01:31:54;;;;;;;100.00;70.75;;;;;;;6.88;79.23;101544.81;5021811;28;20053;-79
2023/01/15 01:34:22;;;;;;;95.57;67.65;;;;;;;6.70;79.17;101515.94;5024371;28;20053;-76
2023/01/15 01:36:49;;;;;;;103.47;70.03;;;;;;;6.94;79.25;101552.38;5025885;28;20449;-78
2023/01/15 01:39:17;;;;;;;103.22;71.32;;;;;;;6.80;79.35;101529.44;5021317;28;20053;-79
2023/01/15 01:41:46;;;;;;;102.85;70.53;;;;;;;6.87;79.50;101546.63;5023893;28;20053;-77
2023/01/15 01:44:33;;;;;;;102.13;67.93;;;;;;;6.89;79.14;101542.06;5022498;28;20663;-78
2023/01/15 01:47:14;;;;;;;100.45;69.70;;;;;;;6.84;79.54;101538.84;5026414;28;20490;-79
2023/01/15 01:49:56;;;;;;;104.03;70.15;;;;;;;6.90;79.11;101535.03;5025112;28;20099;-79
2023/01/15 01:52:29;;;;;;;105.32;67.85;;;;;;;6.89;79.29;101536.78;5026198;28;20051;-80
2023/01/15 01:55:07;;;;;;;103.00;67.85;;;;;;;6.77;79.04;101521.69;5027257;28;20376;-80
2023/01/15 01:57:33;;;;;;;102.80;69.38;;;;;;;6.86;79.32;101539.63;5030585;28;20049;-79
2023/01/15 02:00:05;;;;;;;95.75;66.68;;;;;;;6.82;79.37;101535.44;5025817;28;20049;-79
2023/01/15 02:02:32;;;;;;;96.43;67.80;;;;;;;6.82;79.20;101524.91;5032056;28;20059;-79
2023/01/15 02:05:02;;;;;;;95.88;65.47;;;;;;;6.78;79.14;101529.53;5012185;28;20260;-80
2023/01/15 02:07:32;;;;;;;101.43;69.38;;;;;;;6.71;79.51;101522.06;5007957;28;20052;-80
2023/01/15 02:10:00;;;;;;;92.88;64.05;;;;;;;6.66;79.37;101524.09;5008427;28;20282;-78
2023/01/15 02:12:34;;;;;;;92.28;65.28;;;;;;;6.67;79.28;101536.34;4997921;28;20053;-78
2023/01/15 02:15:15;;;;;;;95.85;67.78;;;;;;;6.07;79.47;101427.22;4957603;28;20289;-79
2023/01/15 02:17:47;;;;;;;91.85;66.55;;;;;;;6.20;79.28;101443.19;4959601;28;20437;-79
2023/01/15 02:20:35;;;;;;;98.25;66.53;;;;;;;6.74;79.20;101513.94;5007750;28;20054;-78
2023/01/15 02:23:26;;;;;;;93.78;64.75;;;;;;;6.63;79.08;101496.13;5022379;28;20068;-78
2023/01/15 02:26:28;;;;;;;85.55;62.53;;;;;;;6.69;79.24;101513.38;5016610;28;20230;-78
2023/01/15 02:29:00;;;;;;;93.13;63.80;;;;;;;6.45;79.40;101484.81;5013826;28;20100;-80
2023/01/15 02:31:51;;;;;;;94.05;63.20;;;;;;;6.60;79.80;101515.63;5023213;28;20238;-77
2023/01/15 02:34:38;;;;;;;93.20;63.50;;;;;;;6.44;79.66;101483.13;5023984;28;20053;-78
2023/01/15 02:37:12;;;;;;;88.60;62.33;;;;;;;6.32;79.49;101463.59;5027922;28;20124;-77
2023/01/15 02:39:43;;;;;;;89.80;62.65;;;;;;;6.46;79.79;101476.00;5027887;28;20479;-79
2023/01/15 02:42:11;;;;;;;91.60;64.18;;;;;;;6.63;79.41;101504.03;5018369;28;20045;-80
2023/01/15 02:44:53;;;;;;;87.70;64.28;;;;;;;6.62;79.53;101492.59;4975973;28;20211;-77
2023/01/15 02:47:27;;;;;;;95.63;67.35;;;;;;;6.49;79.58;101461.78;4977973;28;20124;-79
2023/01/15 02:49:58;;;;;;;104.82;69.20;;;;;;;6.68;79.50;101490.56;5024871;28;20041;-79
2023/01/15 02:52:31;;;;;;;104.93;70.13;;;;;;;6.45;79.45;101447.88;5024165;28;20491;-80
2023/01/15 02:55:22;;;;;;;97.38;68.03;;;;;;;6.68;79.28;101485.28;5018162;28;20760;-79
2023/01/15 02:57:56;;;;;;;96.97;65.13;;;;;;;6.58;79.30;101467.34;5022868;28;20057;-80
2023/01/15 03:00:30;;;;;;;96.28;66.13;;;;;;;6.43;79.42;101449.75;5027200;28;20049;-79
2023/01/15 03:03:18;;;;;;;94.07;66.30;;;;;;;6.46;79.59;101457.53;5015332;28;20185;-79
2023/01/15 03:06:02;;;;;;;94.40;67.20;;;;;;;6.41;79.50;101446.38;5004105;28;20059;-79
2023/01/15 03:08:29;;;;;;;96.40;68.20;;;;;;;6.62;79.64;101470.66;5007019;28;20320;-79
2023/01/15 03:11:19;;;;;;;95.53;64.53;;;;;;;6.63;79.27;101478.50;4979406;28;20269;-80
2023/01/15 03:14:03;;;;;;;101.65;68.28;;;;;;;6.69;79.21;101476.44;4983625;28;20041;-80
2023/01/15 03:16:44;;;;;;;94.75;66.53;;;;;;;6.71;79.11;101464.84;4980638;28;20045;-79
2023/01/15 03:19:30;;;;;;;94.95;66.60;;;;;;;6.66;79.83;101451.06;5020027;28;20071;-80
2023/01/15 03:22:26;;;;;;;97.68;66.28;;;;;;;6.70;79.36;101451.72;5020835;28;20161;-78
2023/01/15 03:25:07;;;;;;;95.32;62.53;;;;;;;6.51;79.19;101415.91;5022364;28;20041;-76
2023/01/15 03:27:40;;;;;;;94.75;65.85;;;;;;;6.69;79.09;101452.69;5023972;28;20657;-77
2023/01/15 03:30:15;;;;;;;99.00;67.93;;;;;;;6.59;79.31;101429.47;5015091;28;20164;-78
2023/01/15 03:32:42;;;;;;;100.20;66.18;;;;;;;6.68;79.22;101437.81;5020987;28;20183;-78
2023/01/15 03:35:46;;;;;;;104.18;66.72;;;;;;;6.62;79.52;101429.28;5020750;28;20045;-77
2023/01/15 03:38:16;;;;;;;105.10;69.10;;;;;;;6.33;79.47;101378.25;5024455;28;20045;-78
2023/01/15 03:41:24;;;;;;;93.53;66.97;;;;;;;6.64;79.06;101431.84;5032763;28;20076;-77
2023/01/15 03:43:54;;;;;;;99.53;65.43;;;;;;;6.52;79.16;101409.66;5034258;28;20098;-77
2023/01/15 03:46:47;;;;;;;95.75;65.50;;;;;;;6.63;79.48;101409.03;5037514;28;20049;-77
2023/01/15 03:49:39;;;;;;;93.93;65.15;;;;;;;6.51;79.57;101391.31;5034774;28;20502;-77
2023/01/15 03:52:18;;;;;;;97.90;65.22;;;;;;;6.68;79.08;101419.31;5033046;28;20118;-78
2023/01/15 03:55:05;;;;;;;98.45;65.50;;;;;;;6.67;78.83;101412.34;5029979;28;20054;-77
2023/01/15 03:57:38;;;;;;;96.00;67.03;;;;;;;6.15;79.00;101334.50;5032976;28;20041;-77
2023/01/15 04:00:49;;;;;;;103.43;67.82;;;;;;;5.49;79.12;101222.38;5004326;28;20123;-78
2023/01/15 04:03:19;;;;;;;100.28;67.45;;;;;;;6.56;78.98;101408.56;5017633;28;20757;-78
2023/01/15 04:05:49;;;;;;;98.38;67.00;;;;;;;6.57;79.21;101415.50;5020646;28;20049;-77
2023/01/15 04:08:16;;;;;;;103.05;67.60;;;;;;;6.60;79.44;101419.75;4977728;28;20418;-78
2023/01/15 04:11:09;;;;;;;100.22;69.00;;;;;;;6.51;79.38;101399.22;5002681;28;20552;-79
2023/01/15 04:13:42;;;;;;;99.40;66.78;;;;;;;6.41;79.14;101380.44;4899348;28;20158;-78
2023/01/15 04:16:13;;;;;;;98.80;66.25;;;;;;;6.55;79.31;101396.31;5018249;28;20059;-79
2023/01/15 04:18:43;;;;;;;106.55;69.95;;;;;;;6.42;79.16;101390.06;4989603;28;20054;-78
2023/01/15 04:21:12;;;;;;;103.45;69.10;;;;;;;6.55;79.45;101406.88;4988061;28;20115;-79
2023/01/15 04:23:41;;;;;;;97.03;68.00;;;;;;;6.32;79.70;101378.34;5017672;28;20053;-79
2023/01/15 04:26:14;;;;;;;100.68;67.15;;;;;;;6.28;79.30;101363.63;5012115;28;20059;-79
2023/01/15 04:28:45;;;;;;;104.63;70.57;;;;;;;6.46;79.40;101396.84;4999452;28;20103;-80
2023/01/15 04:31:19;;;;;;;98.63;67.28;;;;;;;6.50;78.99;101397.50;5010556;28;20160;-77
2023/01/15 04:34:02;;;;;;;106.22;69.05;;;;;;;6.40;79.48;101378.72;4989825;28;20084;-78
2023/01/15 04:36:46;;;;;;;94.30;65.40;;;;;;;6.22;79.72;101348.19;4990719;28;20087;-80
2023/01/15 04:39:31;;;;;;;103.38;67.18;;;;;;;6.29;79.99;101349.53;5002435;28;20506;-80
2023/01/15 04:44:49;;;;;;;105.80;64.97;;;;;;;6.14;79.73;101315.22;5003088;28;20049;-80
2023/01/15 04:47:20;;;;;;;102.78;69.90;;;;;;;6.67;79.47;101370.13;5010484;28;20044;-80
2023/01/15 04:49:50;;;;;;;103.97;68.47;;;;;;;6.67;78.48;101359.56;4992946;28;20222;-76
2023/01/15 04:52:29;;;;;;;95.20;65.47;;;;;;;6.69;79.21;101376.16;4984677;28;20382;-79
2023/01/15 04:55:03;;;;;;;98.38;68.47;;;;;;;6.64;79.19;101369.34;5009695;28;20045;-78
2023/01/15 04:57:38;;;;;;;102.32;69.38;;;;;;;6.11;78.91;101275.84;4990916;28;20056;-78
2023/01/15 05:00:12;;;;;;;105.47;70.30;;;;;;;6.66;79.42;101355.25;4987336;28;20462;-79
2023/01/15 05:02:46;;;;;;;98.70;68.72;;;;;;;6.74;79.10;101369.66;4962380;28;20060;-78
2023/01/15 05:05:14;;;;;;;102.70;70.28;;;;;;;6.68;79.18;101363.91;4978413;28;20056;-79
2023/01/15 05:07:45;;;;;;;102.93;69.57;;;;;;;6.24;78.70;101280.38;4999423;28;20100;-79
2023/01/15 05:10:19;;;;;;;105.50;70.35;;;;;;;6.78;78.92;101365.06;4997797;28;20207;-76
2023/01/15 05:12:50;;;;;;;108.57;70.57;;;;;;;6.61;79.34;101329.97;4980398;28;20425;-78
2023/01/15 05:15:22;;;;;;;103.22;69.53;;;;;;;6.78;79.07;101349.22;4981055;28;20303;-79
2023/01/15 05:17:50;;;;;;;98.88;68.30;;;;;;;6.71;79.21;101327.63;4954660;28;20111;-79
2023/01/15 05:20:20;;;;;;;103.15;71.25;;;;;;;6.68;79.63;101311.16;4960157;28;20111;-79
2023/01/15 05:22:47;;;;;;;107.25;71.60;;;;;;;6.28;79.14;101244.97;4971840;28;20138;-79
2023/01/15 05:25:16;;;;;;;95.63;67.68;;;;;;;6.80;79.04;101315.66;4954158;28;20314;-79
2023/01/15 05:27:46;;;;;;;104.05;68.60;;;;;;;6.76;78.90;101307.06;4958259;28;20049;-78
2023/01/15 05:30:15;;;;;;;103.97;69.15;;;;;;;6.87;78.70;101329.31;4952983;28;20504;-80
2023/01/15 05:32:47;;;;;;;102.45;68.55;;;;;;;6.50;78.90;101270.88;4956219;28;20292;-79
2023/01/15 05:35:18;;;;;;;97.70;68.28;;;;;;;6.85;78.86;101334.69;4927887;28;20565;-79
2023/01/15 05:37:49;;;;;;;98.53;68.95;;;;;;;6.75;78.25;101312.47;4961628;28;20376;-78
2023/01/15 05:40:32;;;;;;;95.63;69.45;;;;;;;6.85;78.92;101327.63;4949904;28;20357;-79
2023/01/15 05:43:06;;;;;;;99.13;69.60;;;;;;;6.91;78.67;101318.47;4941731;28;20295;-78
2023/01/15 05:45:41;;;;;;;108.15;70.00;;;;;;;6.80;78.16;101310.38;4934045;28;20091;-79
2023/01/15 05:48:18;;;;;;;97.25;67.43;;;;;;;6.82;78.03;101326.94;4926184;28;20111;-79
2023/01/15 05:50:57;;;;;;;101.85;68.32;;;;;;;6.77;78.75;101321.13;4924553;28;20555;-80
2023/01/15 05:53:33;;;;;;;104.20;69.05;;;;;;;6.58;78.80;101295.88;4926553;28;20056;-79
2023/01/15 05:56:10;;;;;;;98.22;66.32;;;;;;;6.54;78.99;101286.44;4922092;28;20350;-79
2023/01/15 05:58:46;;;;;;;93.47;65.65;;;;;;;6.29;78.68;101251.97;4931416;28;20052;-78
2023/01/15 06:01:35;;;;;;;102.20;67.70;;;;;;;6.68;78.57;101314.63;4931734;28;20438;-79
2023/01/15 06:04:07;;;;;;;96.05;66.43;;;;;;;6.60;78.79;101315.09;4950261;28;20056;-75
2023/01/15 06:06:36;;;;;;;101.13;66.68;;;;;;;6.22;78.74;101258.53;4938181;28;20323;-78
2023/01/15 06:09:11;;;;;;;104.60;67.68;;;;;;;6.23;79.46;101268.97;4944262;28;20083;-76
2023/01/15 06:11:48;;;;;;;98.03;65.32;;;;;;;6.18;79.35;101256.06;4935068;28;20532;-81
2023/01/15 06:14:16;;;;;;;94.35;64.95;;;;;;;6.60;79.46;101320.38;4950253;28;20134;-77
2023/01/15 06:16:53;;;;;;;92.93;63.30;;;;;;;6.60;79.20;101324.78;4936130;28;20049;-79
2023/01/15 06:19:25;;;;;;;94.72;63.10;;;;;;;6.59;79.13;101313.38;4928281;28;20118;-78
2023/01/15 06:22:02;;;;;;;88.57;62.83;;;;;;;6.70;79.72;101322.44;4938379;28;20134;-77
2023/01/15 06:24:51;;;;;;;93.65;64.47;;;;;;;6.71;79.24;101301.25;4934430;28;20388;-78
2023/01/15 06:27:28;;;;;;;94.78;64.40;;;;;;;6.76;79.11;101314.16;4928198;28;20357;-78
2023/01/15 06:30:08;;;;;;;94.13;62.83;;;;;;;6.66;79.21;101291.91;4942328;28;20127;-78
2023/01/15 06:32:43;;;;;;;101.40;66.35;;;;;;;6.81;78.65;101293.59;4938386;28;20360;-79
2023/01/15 06:35:19;;;;;;;93.28;65.05;;;;;;;6.64;78.66;101269.09;4919519;28;20507;-79
2023/01/15 06:37:59;;;;;;;104.00;68.90;;;;;;;6.80;78.62;101278.72;4945358;28;20641;-79
2023/01/15 06:40:41;;;;;;;95.05;64.10;;;;;;;6.85;78.97;101303.88;4928999;28;20265;-79
2023/01/15 06:49:28;;;;;;;92.10;67.00;;;;;;;6.87;78.95;101298.50;4962555;28;20045;-82
2023/01/15 06:52:11;;;;;;;101.10;67.05;;;;;;;6.88;78.76;101297.56;4937771;28;20745;-80
2023/01/15 06:54:54;;;;;;;98.35;66.88;;;;;;;6.90;78.52;101295.66;4937456;28;20123;-79
2023/01/15 06:57:43;;;;;;;101.88;67.18;;;;;;;6.91;78.38;101297.34;4951711;28;20045;-80
2023/01/15 07:00:20;;;;;;;93.70;65.28;;;;;;;6.89;78.57;101291.31;4919055;28;20381;-80
2023/01/15 07:03:18;;;;;;;101.47;65.70;;;;;;;6.69;78.25;101244.22;4922218;28;20521;-79
2023/01/15 07:06:21;;;;;;;103.97;67.10;;;;;;;6.90;78.44;101273.72;4901001;28;20242;-80
2023/01/15 07:09:10;;;;;;;100.93;67.13;;;;;;;6.83;78.70;101270.59;4891402;28;20262;-79
2023/01/15 07:11:51;;;;;;;101.20;67.90;;;;;;;6.52;79.15;101210.97;4953179;28;20404;-79
2023/01/15 07:14:24;;;;;;;100.55;67.80;;;;;;;7.06;78.27;101264.72;4970866;28;20069;-79
2023/01/15 07:16:51;;;;;;;102.13;69.03;;;;;;;6.91;78.45;101233.16;5001865;28;20442;-80
2023/01/15 07:19:21;;;;;;;103.88;71.15;;;;;;;7.16;77.31;101264.13;4991941;28;20389;-80
2023/01/15 07:21:48;;;;;;;100.32;71.85;;;;;;;6.88;78.63;101244.75;5010436;28;20060;-77
2023/01/15 07:24:21;;;;;;;106.65;71.70;;;;;;;6.94;78.78;101249.66;5017374;28;20044;-77
2023/01/15 07:26:47;;;;;;;115.43;71.38;;;;;;;6.91;79.63;101238.44;5013957;28;20045;-77
2023/01/15 07:29:25;;;;;;;107.97;74.63;;;;;;;6.99;79.35;101244.94;4980786;28;20059;-78
2023/01/15 07:32:08;;;;;;;108.10;73.22;;;;;;;6.76;79.60;101204.16;4976244;28;20861;-79
2023/01/15 07:34:47;;;;;;;102.75;71.95;;;;;;;6.61;79.12;101184.88;4988683;28;20082;-76
2023/01/15 07:37:13;;;;;;;102.93;73.22;;;;;;;7.13;78.64;101264.31;5013500;28;20138;-81
2023/01/15 07:39:47;;;;;;;101.60;72.30;;;;;;;7.15;78.86;101258.00;5016106;28;20045;-81
2023/01/15 07:50:41;;;;;;;102.88;71.05;;;;;;;7.04;78.71;101244.66;5018160;28;20420;-81
2023/01/15 07:53:13;;;;;;;100.50;72.43;;;;;;;6.90;78.95;101213.84;4997467;28;20128;-80
2023/01/15 07:55:44;;;;;;;107.65;74.05;;;;;;;7.14;78.88;101258.94;5008788;28;20083;-80
2023/01/15 07:58:12;;;;;;;105.82;73.75;;;;;;;7.00;78.94;101227.31;5007580;28;20135;-82
2023/01/15 08:00:41;;;;;;;106.20;71.32;;;;;;;7.19;78.57;101259.50;5016628;28;20098;-79
2023/01/15 08:03:18;;;;;;;108.13;71.47;;;;;;;7.00;78.77;101222.88;4999066;28;20045;-78
2023/01/15 08:05:53;;;;;;;100.30;72.35;;;;;;;7.19;78.13;101256.03;5021009;28;20268;-79
2023/01/15 08:08:25;;;;;;;105.38;73.63;;;;;;;7.24;78.30;101261.84;5015954;28;20045;-79
2023/01/15 08:16:41;;;;;;;111.75;75.45;;;;;;;7.14;78.48;101242.28;5018388;28;20084;-78
2023/01/15 08:19:07;;;;;;;105.53;73.20;;;;;;;6.91;78.48;101201.50;5010419;28;20800;-80
2023/01/15 08:21:46;;;;;;;99.00;71.82;;;;;;;6.87;77.92;101195.56;5012414;28;20411;-77
2023/01/15 08:24:16;;;;;;;100.85;74.07;;;;;;;6.97;78.51;101220.44;5012220;28;20728;-79
2023/01/15 08:26:45;;;;;;;105.40;72.97;;;;;;;7.04;78.55;101218.25;5019400;28;20048;-79
2023/01/15 08:29:14;;;;;;;108.70;76.82;;;;;;;7.07;78.49;101223.31;5022447;28;20107;-80
2023/01/15 08:31:42;;;;;;;104.25;73.15;;;;;;;7.26;78.23;101237.03;5017384;28;20061;-79
2023/01/15 08:34:15;;;;;;;111.38;75.90;;;;;;;7.23;78.63;101244.28;5026610;28;20056;-80
2023/01/15 08:36:42;;;;;;;105.63;73.90;;;;;;;7.10;78.72;101206.44;5018342;28;20057;-80
2023/01/15 08:39:09;;;;;;;101.70;73.68;;;;;;;7.25;78.06;101226.56;5016273;28;20044;-80
2023/01/15 08:41:35;;;;;;;107.43;75.28;;;;;;;7.27;77.83;101220.22;5019041;28;20049;-79
2023/01/15 08:44:02;;;;;;;104.28;73.20;;;;;;;6.91;78.11;101160.09;5013865;28;20114;-77
2023/01/15 08:46:32;;;;;;;107.72;75.43;;;;;;;7.16;77.62;101220.09;5007816;28;20052;-79
2023/01/15 08:48:58;;;;;;;110.60;74.63;;;;;;;7.28;78.55;101242.19;5017626;28;20056;-79
2023/01/15 08:51:31;;;;;;;109.05;75.40;;;;;;;7.32;78.26;101243.69;5020686;28;20087;-76
2023/01/15 08:54:01;;;;;;;112.85;74.38;;;;;;;7.28;78.14;101226.34;4999275;28;20067;-78
2023/01/15 08:56:28;;;;;;;108.72;77.80;;;;;;;7.22;78.40;101205.63;5023178;28;20479;-80
2023/01/15 08:59:03;;;;;;;106.18;73.55;;;;;;;7.39;78.44;101228.31;5007289;28;20056;-80
2023/01/15 09:01:31;;;;;;;102.15;73.50;;;;;;;7.41;77.83;101232.53;5019226;28;20037;-79
2023/01/15 09:04:09;;;;;;;109.38;76.90;;;;;;;7.38;77.92;101211.63;5001537;28;20310;-77
2023/01/15 09:06:35;;;;;;;107.80;75.50;;;;;;;7.47;77.80;101211.00;5028697;28;20556;-78
2023/01/15 09:09:06;;;;;;;105.72;74.28;;;;;;;7.35;77.47;101195.94;5027519;28;20052;-79
2023/01/15 09:11:35;;;;;;;105.78;75.25;;;;;;;7.34;77.17;101194.28;5015035;28;20057;-78
2023/01/15 09:14:16;;;;;;;105.45;72.95;;;;;;;7.51;77.22;101221.38;5027684;28;20064;-77
2023/01/15 09:17:10;;;;;;;106.22;76.40;;;;;;;7.48;77.38;101204.78;4999155;28;20047;-77
2023/01/15 09:19:38;;;;;;;103.78;73.22;;;;;;;7.52;77.16;101217.78;5017115;28;20041;-78
2023/01/15 09:22:13;;;;;;;98.43;72.63;;;;;;;7.39;77.56;101176.31;5023316;28;20075;-76
2023/01/15 09:24:43;;;;;;;104.45;74.47;;;;;;;7.46;77.08;101172.31;5016279;28;20392;-77
2023/01/15 09:27:11;;;;;;;112.55;77.25;;;;;;;7.56;77.12;101195.50;4986812;28;20479;-78
2023/01/15 09:29:41;;;;;;;99.85;72.15;;;;;;;7.51;77.46;101173.81;5013459;28;20057;-78
2023/01/15 09:32:11;;;;;;;103.88;75.35;;;;;;;7.56;77.37;101179.63;5013285;28;20500;-79
2023/01/15 09:34:42;;;;;;;98.82;74.05;;;;;;;7.66;76.92;101193.91;5010321;28;20045;-78
2023/01/15 09:37:12;;;;;;;100.10;72.53;;;;;;;7.46;76.88;101153.81;5016032;28;20486;-78
2023/01/15 09:39:42;;;;;;;109.60;73.95;;;;;;;7.76;76.62;101200.28;5001246;28;21236;-78
2023/01/15 09:42:18;;;;;;;102.80;72.15;;;;;;;7.64;77.35;101187.88;5021612;28;20364;-78
2023/01/15 09:45:20;;;;;;;105.85;73.18;;;;;;;7.81;76.67;101203.44;5018258;28;20404;-79
2023/01/15 09:48:05;;;;;;;;;;;;;;;7.76;76.46;101188.88;4976661;28;20045;-79
2023/01/15 09:50:53;;;;;;;105.85;73.90;;;;;;;7.79;76.62;101192.16;5026414;28;19929;-79
2023/01/15 09:53:31;;;;;;;105.45;75.15;;;;;;;7.76;76.55;101173.84;5006306;28;20272;-80
2023/01/15 09:56:12;;;;;;;112.05;75.20;;;;;;;7.76;76.39;101173.84;5007682;28;20048;-79
2023/01/15 09:58:39;;;;;;;113.55;77.53;;;;;;;7.60;76.75;101139.69;5019713;28;20053;-76
2023/01/15 10:01:20;;;;;;;113.57;76.13;;;;;;;7.78;76.60;101153.44;5020448;28;20563;-76
2023/01/15 10:04:00;;;;;;;101.40;73.63;;;;;;;7.66;76.30;101146.34;5002158;28;20539;-78
2023/01/15 10:06:31;;;;;;;102.35;73.72;;;;;;;7.29;76.71;101085.44;5021966;28;20572;-76
2023/01/15 10:09:05;;;;;;;107.63;76.23;;;;;;;7.55;76.53;101122.44;5024645;28;20056;-79
2023/01/15 10:15:13;;;;;;;105.70;75.82;;;;;;;7.79;76.71;101147.22;5020544;28;20051;-78
2023/01/15 10:17:46;;;;;;;106.82;77.20;;;;;;;7.48;77.03;101085.88;5016301;28;20541;-79
2023/01/15 10:20:44;;;;;;;105.18;77.40;;;;;;;7.38;76.85;101062.81;5010375;28;20053;-78
2023/01/15 10:23:36;;;;;;;100.97;73.00;;;;;;;7.88;77.16;101133.34;4993214;28;20144;-80
2023/01/15 10:26:26;;;;;;;110.15;76.30;;;;;;;7.88;76.91;101133.34;4976461;28;20613;-80
2023/01/15 10:29:31;;;;;;;108.43;76.93;;;;;;;7.90;77.17;101106.81;4998581;28;20055;-79
2023/01/15 10:32:13;;;;;;;112.75;77.13;;;;;;;8.08;76.62;101104.66;4960627;28;20083;-79
2023/01/15 10:35:02;;;;;;;105.40;75.20;;;;;;;8.08;76.12;101115.25;5015629;28;20310;-79
2023/01/15 10:37:45;;;;;;;112.95;76.47;;;;;;;8.04;76.43;101097.94;5002556;28;20687;-79
2023/01/15 10:40:40;;;;;;;102.43;75.22;;;;;;;8.02;76.67;101095.38;5007826;28;20063;-78
2023/01/15 10:43:28;;;;;;;110.40;79.28;;;;;;;8.02;76.76;101086.59;5015347;28;20563;-79
2023/01/15 10:46:23;;;;;;;106.90;76.32;;;;;;;8.06;77.00;101085.44;4996632;28;20633;-79
2023/01/15 10:49:05;;;;;;;118.80;81.03;;;;;;;8.02;76.31;101071.59;4981215;28;20057;-78
2023/01/15 10:51:40;;;;;;;;;;;;;;;7.73;76.13;101018.13;5005050;28;20049;-80
2023/01/15 10:54:23;;;;;;;109.45;74.03;;;;;;;8.10;76.09;101060.47;5001911;28;19944;-81
2023/01/15 10:57:11;;;;;;;112.47;78.13;;;;;;;8.05;76.52;101057.31;4992115;28;20379;-78
2023/01/15 10:59:55;;;;;;;110.70;76.75;;;;;;;7.61;76.46;100976.72;5009789;28;20049;-79
2023/01/15 11:02:33;;;;;;;;;;;;;;;8.05;76.33;101052.84;4987123;28;20149;-80
2023/01/15 11:05:02;;;;;;;107.88;78.18;;;;;;;7.27;76.25;100918.31;4983633;28;20207;-80
2023/01/15 11:07:47;;;;;;;112.22;78.30;;;;;;;8.10;76.50;101034.84;5000259;28;20053;-79
2023/01/15 11:10:41;;;;;;;112.35;81.47;;;;;;;7.98;76.54;101014.56;4996489;28;20487;-79
2023/01/15 11:19:39;;;;;;;112.13;80.68;;;;;;;7.48;76.63;100906.25;4968584;28;20510;-79
2023/01/15 11:22:16;;;;;;;116.15;82.25;;;;;;;8.20;75.80;101005.09;5010109;28;20052;-79
2023/01/15 11:24:55;;;;;;;113.47;82.38;;;;;;;7.98;75.70;100979.38;5021144;28;20060;-81
2023/01/15 11:27:28;;;;;;;120.35;84.80;;;;;;;7.93;75.84;100963.84;5015395;28;20541;-80
2023/01/15 11:30:02;;;;;;;109.85;80.70;;;;;;;8.03;75.76;100971.94;4997520;28;20508;-80
2023/01/15 11:32:39;;;;;;;116.47;81.72;;;;;;;8.05;76.49;100986.75;4995214;28;20049;-77
2023/01/15 11:35:20;;;;;;;114.63;81.97;;;;;;;7.91;76.48;100963.97;4982322;28;20214;-80
2023/01/15 11:38:03;;;;;;;118.18;84.32;;;;;;;8.07;76.53;100979.56;5009567;28;20072;-79
2023/01/15 11:40:29;;;;;;;111.43;80.60;;;;;;;8.25;76.18;100990.63;5012008;28;20660;-78
2023/01/15 11:51:51;;;;;;;121.53;85.35;;;;;;;8.16;76.03;100935.75;4975395;28;20059;-80
2023/01/15 11:54:26;;;;;;;117.15;84.47;;;;;;;8.39;76.41;100964.94;4985164;28;20396;-79
2023/01/15 11:56:57;;;;;;;120.82;84.95;;;;;;;7.41;75.83;100815.19;4980022;28;20340;-78
2023/01/15 11:59:33;;;;;;;121.40;86.75;;;;;;;8.28;76.06;100976.31;4998421;28;20215;-76
2023/01/15 12:02:46;;;;;;;121.07;85.78;;;;;;;8.26;76.58;100960.53;4991069;28;20056;-79
2023/01/15 12:05:22;;;;;;;113.53;82.82;;;;;;;7.85;76.50;100881.63;4967922;28;20436;-79
2023/01/15 12:07:59;;;;;;;120.13;82.82;;;;;;;7.12;76.40;100771.56;4989785;28;20582;-79
2023/01/15 12:11:04;;;;;;;110.68;80.25;;;;;;;8.11;76.91;100940.53;4989839;28;20132;-79
2023/01/15 12:14:30;;;;;;;115.15;81.57;;;;;;;8.21;76.52;100940.69;4990376;28;20179;-78
2023/01/15 12:17:04;;;;;;;114.78;82.60;;;;;;;8.22;76.68;100943.22;4990164;28;20643;-78
2023/01/15 12:19:43;;;;;;;120.18;82.00;;;;;;;8.13;76.98;100923.59;5011458;28;20489;-76
2023/01/15 12:22:14;;;;;;;118.15;84.03;;;;;;;7.81;77.42;100859.00;5015767;28;20134;-79
2023/01/15 12:24:52;;;;;;;119.32;83.47;;;;;;;8.34;76.99;100936.16;5013544;28;20056;-78
2023/01/15 12:27:19;;;;;;;121.68;83.40;;;;;;;7.66;76.50;100830.09;5015911;28;20405;-78
2023/01/15 12:29:53;;;;;;;122.75;83.55;;;;;;;7.99;76.65;100878.81;5006372;28;20132;-79
2023/01/15 12:32:30;;;;;;;124.28;79.10;;;;;;;6.95;76.60;100715.53;4992829;28;20286;-80
2023/01/15 12:35:17;;;;;;;116.40;81.63;;;;;;;8.34;77.03;100926.44;5005984;28;20514;-78
2023/01/15 12:38:12;;;;;;;118.15;84.35;;;;;;;8.34;75.84;100902.63;5012151;28;20483;-77
2023/01/15 12:41:08;;;;;;;110.13;80.30;;;;;;;7.82;77.02;100827.19;5013558;28;20088;-82